Box Emma — V7WY6 — position and weather

sailwx.info

Track history (hours):
 
Tides and Currents Weather Stations Pressure Air Temp Water Temp Dewpoint Dewpoint Depression Visibility Wind Speed Wind Dir Waves Ship Positions

Box Emma

Last reported at 2016-Jul-12 16:21 UTC. Time now 2016-Jul-30 02:00 UTC.
Position N 31°53' W 080°34'.
Warning: this ship's position is 17 days out of date.

Length 294 m; draft 11.3 m.

Type: Ship (hazmat cat A). MMSI: 538004424.

Date/timePositionNaut miles runAvg speedWind from/ knotsBaromVisibWave heightAir tempDewpointWater temp
2016-Jul-12 16:21N 31°53' W 080°34'911.3
2016-Jul-12 15:34N 31°58' W 080°43'1211.8
2016-Jul-12 14:33N 32°03' W 080°56'7 7.4
2016-Jul-12 13:33N 32°05' W 081°04'4 4.0
2016-Jul-12 12:29N 32°07' W 081°08'0 0.0
2016-Jul-12 11:29N 32°07' W 081°08'0 0.0
2016-Jul-12 10:29N 32°07' W 081°08'0 0.0
2016-Jul-12 09:28N 32°07' W 081°08'0 0.0
2016-Jul-12 08:16N 32°07' W 081°08'0 0.0
2016-Jul-12 07:21N 32°07' W 081°08'0 0.0
2016-Jul-12 06:33N 32°07' W 081°08'0 0.0
2016-Jul-12 05:31N 32°07' W 081°08'0 0.0
2016-Jul-12 04:30N 32°07' W 081°08'0 0.0
2016-Jul-12 03:33N 32°07' W 081°08'0 0.0
2016-Jul-12 02:34N 32°07' W 081°08'0 0.0
2016-Jul-12 01:33N 32°07' W 081°08'0 0.0
2016-Jul-12 00:33N 32°07' W 081°08'0 0.0
2016-Jul-11 23:30N 32°07' W 081°08'0 0.0
2016-Jul-11 22:33N 32°07' W 081°08'0 0.0
2016-Jul-11 21:27N 32°07' W 081°08'0 0.0
2016-Jul-11 20:32N 32°07' W 081°08'0 0.0
2016-Jul-11 19:30N 32°07' W 081°08'0 0.0
2016-Jul-11 18:30N 32°07' W 081°08'0 0.0
2016-Jul-11 17:28N 32°07' W 081°08'0 0.0
2016-Jul-11 16:28N 32°07' W 081°08'0 0.0
2016-Jul-11 15:34N 32°07' W 081°08'0 0.5
2016-Jul-11 14:32N 32°07' W 081°08'6 6.5
2016-Jul-11 13:33N 32°06' W 081°00'1211.5
2016-Jul-11 12:33N 32°01' W 080°48'1211.6
2016-Jul-11 11:33N 31°57' W 080°35'1312.9
2016-Jul-11 10:33N 31°58' W 080°20'1312.8
2016-Jul-11 09:33N 31°60' W 080°05'1312.9
2016-Jul-11 08:33N 32°05' W 079°51'1912.4
2016-Jul-11 07:03N 32°13' W 079°31'3112.4
2016-Jul-11 04:33N 32°26' W 078°58'5312.3
2016-Jul-11 00:16N 32°53' W 078°04'3812.5
2016-Jul-10 21:14N 33°12' W 077°24'7412.7
2016-Jul-10 15:28N 33°60' W 076°18'1413.8
2016-Jul-10 14:28N 34°10' W 076°06'1212.8
2016-Jul-10 13:33N 34°18' W 075°56'1312.7
2016-Jul-10 12:33N 34°27' W 075°45'1212.6
2016-Jul-10 11:33N 34°36' W 075°35'1312.4
2016-Jul-10 10:33N 34°45' W 075°25'1212.2
2016-Jul-10 09:34N 34°54' W 075°14'12010.9
2016-Jul-09 22:30N 36°51' W 075°50'1212.3
2016-Jul-09 21:33N 36°57' W 076°02'1511.9
2016-Jul-09 20:20N 36°56' W 076°20'0 0.1
2016-Jul-09 14:27N 36°56' W 076°20'0 0.0
2016-Jul-09 09:08N 36°56' W 076°20'0 0.7
2016-Jul-09 08:33N 36°56' W 076°20'9 8.3
2016-Jul-09 07:31N 36°59' W 076°10'1414.5
2016-Jul-09 06:33N 36°54' W 075°54'17816.2
2016-Jul-08 19:33N 39°25' W 073°54'1717.3
2016-Jul-08 18:33N 39°42' W 073°52'1717.5
2016-Jul-08 17:33N 39°60' W 073°51'2016.7
2016-Jul-08 16:21N 40°20' W 073°49'1012.1
2016-Jul-08 15:33N 40°29' W 073°54'1313.0
2016-Jul-08 14:33N 40°39' W 074°05'3 3.2
2016-Jul-08 13:34N 40°40' W 074°09'0 0.0
2016-Jul-08 12:26N 40°40' W 074°09'0 0.0
2016-Jul-08 11:28N 40°40' W 074°09'0 0.0
2016-Jul-08 10:31N 40°40' W 074°09'0 0.0
2016-Jul-08 09:31N 40°40' W 074°09'0 0.0
2016-Jul-08 08:33N 40°40' W 074°09'0 0.0
2016-Jul-08 07:18N 40°40' W 074°09'0 0.0
2016-Jul-08 06:32N 40°40' W 074°09'0 0.0
2016-Jul-08 04:31N 40°40' W 074°09'0 0.0
2016-Jul-08 03:28N 40°40' W 074°09'0 0.0
2016-Jul-08 02:31N 40°40' W 074°09'0 0.0
2016-Jul-08 01:30N 40°40' W 074°09'0 0.0
2016-Jul-08 00:21N 40°40' W 074°09'0 0.0
2016-Jul-07 23:32N 40°40' W 074°09'0 0.0
2016-Jul-07 22:29N 40°40' W 074°09'0 0.0
2016-Jul-07 20:25N 40°40' W 074°09'0 0.0
2016-Jul-07 19:28N 40°40' W 074°09'0 0.0
2016-Jul-07 17:30N 40°40' W 074°09'0 0.0
2016-Jul-07 16:29N 40°40' W 074°09'0 0.0
2016-Jul-07 15:29N 40°40' W 074°09'0 0.0
2016-Jul-07 14:31N 40°40' W 074°09'0 0.0
2016-Jul-07 13:19N 40°40' W 074°09'0 0.0
2016-Jul-07 12:31N 40°40' W 074°09'0 0.0
2016-Jul-07 11:31N 40°40' W 074°09'0 0.0
2016-Jul-07 10:33N 40°40' W 074°09'0 0.0
2016-Jul-07 09:32N 40°40' W 074°09'0 0.0
2016-Jul-07 08:32N 40°40' W 074°09'0 0.0
2016-Jul-07 07:13N 40°40' W 074°09'0 0.0
2016-Jul-07 06:25N 40°40' W 074°09'0 0.0
2016-Jul-07 05:31N 40°40' W 074°09'0 0.0
2016-Jul-07 04:33N 40°40' W 074°09'0 0.0
2016-Jul-07 03:33N 40°40' W 074°09'0 0.0
2016-Jul-07 02:32N 40°40' W 074°09'0 0.0
2016-Jul-07 01:32N 40°40' W 074°09'0 0.0
2016-Jul-07 00:33N 40°40' W 074°09'0 0.0
2016-Jul-06 23:31N 40°40' W 074°09'0 0.0
2016-Jul-06 22:34N 40°40' W 074°09'1 0.7
2016-Jul-06 21:33N 40°39' W 074°09'5 4.8
2016-Jul-06 20:33N 40°37' W 074°03'9 8.4
2016-Jul-06 19:33N 40°30' W 073°57'1210.8
2016-Jul-06 18:24N 40°27' W 073°41'6 7.4
2016-Jul-06 17:32N 40°28' W 073°33'  
Track history (hours):
 
Tides and Currents Weather Stations Pressure Air Temp Water Temp Dewpoint Dewpoint Depression Visibility Wind Speed Wind Dir Waves Ship Positions

Box Emma

Last reported at 2016-Jul-12 16:21 UTC. Time now 2016-Jul-30 02:00 UTC.
Position N 31°53' W 080°34'.
Warning: this ship's position is 17 days out of date.

Length 294 m; draft 11.3 m.

Type: Ship (hazmat cat A). MMSI: 538004424.

Date/timePositionNaut miles runAvg speedWind from/ knotsBaromVisibWave heightAir tempDewpointWater temp
2016-Jul-12 16:21N 31°53' W 080°34'911.3
2016-Jul-12 15:34N 31°58' W 080°43'1211.8
2016-Jul-12 14:33N 32°03' W 080°56'7 7.4
2016-Jul-12 13:33N 32°05' W 081°04'4 4.0
2016-Jul-12 12:29N 32°07' W 081°08'0 0.0
2016-Jul-12 11:29N 32°07' W 081°08'0 0.0
2016-Jul-12 10:29N 32°07' W 081°08'0 0.0
2016-Jul-12 09:28N 32°07' W 081°08'0 0.0
2016-Jul-12 08:16N 32°07' W 081°08'0 0.0
2016-Jul-12 07:21N 32°07' W 081°08'0 0.0
2016-Jul-12 06:33N 32°07' W 081°08'0 0.0
2016-Jul-12 05:31N 32°07' W 081°08'0 0.0
2016-Jul-12 04:30N 32°07' W 081°08'0 0.0
2016-Jul-12 03:33N 32°07' W 081°08'0 0.0
2016-Jul-12 02:34N 32°07' W 081°08'0 0.0
2016-Jul-12 01:33N 32°07' W 081°08'0 0.0
2016-Jul-12 00:33N 32°07' W 081°08'0 0.0
2016-Jul-11 23:30N 32°07' W 081°08'0 0.0
2016-Jul-11 22:33N 32°07' W 081°08'0 0.0
2016-Jul-11 21:27N 32°07' W 081°08'0 0.0
2016-Jul-11 20:32N 32°07' W 081°08'0 0.0
2016-Jul-11 19:30N 32°07' W 081°08'0 0.0
2016-Jul-11 18:30N 32°07' W 081°08'0 0.0
2016-Jul-11 17:28N 32°07' W 081°08'0 0.0
2016-Jul-11 16:28N 32°07' W 081°08'0 0.0
2016-Jul-11 15:34N 32°07' W 081°08'0 0.5
2016-Jul-11 14:32N 32°07' W 081°08'6 6.5
2016-Jul-11 13:33N 32°06' W 081°00'1211.5
2016-Jul-11 12:33N 32°01' W 080°48'1211.6
2016-Jul-11 11:33N 31°57' W 080°35'1312.9
2016-Jul-11 10:33N 31°58' W 080°20'1312.8
2016-Jul-11 09:33N 31°60' W 080°05'1312.9
2016-Jul-11 08:33N 32°05' W 079°51'1912.4
2016-Jul-11 07:03N 32°13' W 079°31'3112.4
2016-Jul-11 04:33N 32°26' W 078°58'5312.3
2016-Jul-11 00:16N 32°53' W 078°04'3812.5
2016-Jul-10 21:14N 33°12' W 077°24'7412.7
2016-Jul-10 15:28N 33°60' W 076°18'1413.8
2016-Jul-10 14:28N 34°10' W 076°06'1212.8
2016-Jul-10 13:33N 34°18' W 075°56'1312.7
2016-Jul-10 12:33N 34°27' W 075°45'1212.6
2016-Jul-10 11:33N 34°36' W 075°35'1312.4
2016-Jul-10 10:33N 34°45' W 075°25'1212.2
2016-Jul-10 09:34N 34°54' W 075°14'12010.9
2016-Jul-09 22:30N 36°51' W 075°50'1212.3
2016-Jul-09 21:33N 36°57' W 076°02'1511.9
2016-Jul-09 20:20N 36°56' W 076°20'0 0.1
2016-Jul-09 14:27N 36°56' W 076°20'0 0.0
2016-Jul-09 09:08N 36°56' W 076°20'0 0.7
2016-Jul-09 08:33N 36°56' W 076°20'9 8.3
2016-Jul-09 07:31N 36°59' W 076°10'1414.5
2016-Jul-09 06:33N 36°54' W 075°54'17816.2
2016-Jul-08 19:33N 39°25' W 073°54'1717.3
2016-Jul-08 18:33N 39°42' W 073°52'1717.5
2016-Jul-08 17:33N 39°60' W 073°51'2016.7
2016-Jul-08 16:21N 40°20' W 073°49'1012.1
2016-Jul-08 15:33N 40°29' W 073°54'1313.0
2016-Jul-08 14:33N 40°39' W 074°05'3 3.2
2016-Jul-08 13:34N 40°40' W 074°09'0 0.0
2016-Jul-08 12:26N 40°40' W 074°09'0 0.0
2016-Jul-08 11:28N 40°40' W 074°09'0 0.0
2016-Jul-08 10:31N 40°40' W 074°09'0 0.0
2016-Jul-08 09:31N 40°40' W 074°09'0 0.0
2016-Jul-08 08:33N 40°40' W 074°09'0 0.0
2016-Jul-08 07:18N 40°40' W 074°09'0 0.0
2016-Jul-08 06:32N 40°40' W 074°09'0 0.0
2016-Jul-08 04:31N 40°40' W 074°09'0 0.0
2016-Jul-08 03:28N 40°40' W 074°09'0 0.0
2016-Jul-08 02:31N 40°40' W 074°09'0 0.0
2016-Jul-08 01:30N 40°40' W 074°09'0 0.0
2016-Jul-08 00:21N 40°40' W 074°09'0 0.0
2016-Jul-07 23:32N 40°40' W 074°09'0 0.0
2016-Jul-07 22:29N 40°40' W 074°09'0 0.0
2016-Jul-07 20:25N 40°40' W 074°09'0 0.0
2016-Jul-07 19:28N 40°40' W 074°09'0 0.0
2016-Jul-07 17:30N 40°40' W 074°09'0 0.0
2016-Jul-07 16:29N 40°40' W 074°09'0 0.0
2016-Jul-07 15:29N 40°40' W 074°09'0 0.0
2016-Jul-07 14:31N 40°40' W 074°09'0 0.0
2016-Jul-07 13:19N 40°40' W 074°09'0 0.0
2016-Jul-07 12:31N 40°40' W 074°09'0 0.0
2016-Jul-07 11:31N 40°40' W 074°09'0 0.0
2016-Jul-07 10:33N 40°40' W 074°09'0 0.0
2016-Jul-07 09:32N 40°40' W 074°09'0 0.0
2016-Jul-07 08:32N 40°40' W 074°09'0 0.0
2016-Jul-07 07:13N 40°40' W 074°09'0 0.0
2016-Jul-07 06:25N 40°40' W 074°09'0 0.0
2016-Jul-07 05:31N 40°40' W 074°09'0 0.0
2016-Jul-07 04:33N 40°40' W 074°09'0 0.0
2016-Jul-07 03:33N 40°40' W 074°09'0 0.0
2016-Jul-07 02:32N 40°40' W 074°09'0 0.0
2016-Jul-07 01:32N 40°40' W 074°09'0 0.0
2016-Jul-07 00:33N 40°40' W 074°09'0 0.0
2016-Jul-06 23:31N 40°40' W 074°09'0 0.0
2016-Jul-06 22:34N 40°40' W 074°09'1 0.7
2016-Jul-06 21:33N 40°39' W 074°09'5 4.8
2016-Jul-06 20:33N 40°37' W 074°03'9 8.4
2016-Jul-06 19:33N 40°30' W 073°57'1210.8
2016-Jul-06 18:24N 40°27' W 073°41'6 7.4
2016-Jul-06 17:32N 40°28' W 073°33'  

Dump ship's entire track history